Time;durP1;ratioP1;P1;durP2;ratioP2;P2;SDS_P1;SDS_P2;PMS_P1;PMS_P2;Temp;Humidity;BMP_temperature;BMP_pressure;BME280_temperature;BME280_humidity;BME280_pressure;Samples;Min_cycle;Max_cycle;Signal;HPM_P1;HPM_P2
2022/06/04 00:08:23;;;;;;;6.1;10.6;;;;;;;-133;71.2;65260;;;;
2022/06/04 00:18:23;;;;;;;6.1;10.6;;;;;;;-133;71.6;65260;;;;
2022/06/04 00:29:23;;;;;;;6.1;10.6;;;;;;;-133;74;65260;;;;
2022/06/04 00:39:23;;;;;;;6.6;10.2;;;;;;;-133;73.3;65260;;;;
2022/06/04 00:50:23;;;;;;;6.6;10.2;;;;;;;-133;75.2;65260;;;;
2022/06/04 01:01:23;;;;;;;6.6;10.2;;;;;;;-133;76;65260;;;;
2022/06/04 01:11:23;;;;;;;6.7;13.1;;;;;;;-133;77;65260;;;;
2022/06/04 01:22:23;;;;;;;6.7;13.1;;;;;;;-133;76.7;65260;;;;
2022/06/04 01:33:23;;;;;;;6.7;13.1;;;;;;;-133;76.3;65260;;;;
2022/06/04 01:43:23;;;;;;;6.6;9.6;;;;;;;-133;77.2;65260;;;;
2022/06/04 01:54:23;;;;;;;6.6;9.6;;;;;;;-133;77;65260;;;;
2022/06/04 02:05:23;;;;;;;6.9;10.6;;;;;;;-133;76.9;65260;;;;
2022/06/04 02:15:23;;;;;;;6.9;10.6;;;;;;;-133;78;65260;;;;
2022/06/04 02:26:23;;;;;;;6.9;10.6;;;;;;;-133;78.4;65260;;;;
2022/06/04 02:36:23;;;;;;;7.1;9.2;;;;;;;-133;78.4;65260;;;;
2022/06/04 02:47:23;;;;;;;7.1;9.2;;;;;;;-133;78.1;65260;;;;
2022/06/04 02:58:23;;;;;;;7.1;9.2;;;;;;;-133;78.8;65260;;;;
2022/06/04 03:09:23;;;;;;;6.9;9.2;;;;;;;-133;78.8;65260;;;;
2022/06/04 03:20:23;;;;;;;6.9;9.2;;;;;;;-133;78;65250;;;;
2022/06/04 03:30:25;;;;;;;6.9;9.2;;;;;;;-133;78.5;65250;;;;
2022/06/04 03:41:23;;;;;;;7.2;8.7;;;;;;;-133;77.5;65260;;;;
2022/06/04 03:51:23;;;;;;;7.2;8.7;;;;;;;-133;77.3;65260;;;;
2022/06/04 04:01:23;;;;;;;7.2;8.7;;;;;;;-133;78.3;65260;;;;
2022/06/04 04:11:23;;;;;;;6.4;9;;;;;;;-133;77.9;65260;;;;
2022/06/04 04:21:23;;;;;;;6.4;9;;;;;;;-133;78.4;65260;;;;
2022/06/04 04:32:23;;;;;;;6.4;9;;;;;;;-133;78.5;65260;;;;
2022/06/04 04:42:23;;;;;;;6.4;9.6;;;;;;;-133;80.1;65250;;;;
2022/06/04 04:53:23;;;;;;;6.4;9.6;;;;;;;-133;82.2;65260;;;;
2022/06/04 05:04:23;;;;;;;6.4;9.6;;;;;;;-133;82.6;65250;;;;
2022/06/04 05:14:23;;;;;;;6.7;10.1;;;;;;;-133;82.5;65260;;;;
2022/06/04 05:24:23;;;;;;;6.7;10.1;;;;;;;-133;84.3;65250;;;;
2022/06/04 05:35:23;;;;;;;6.9;9.4;;;;;;;-133;87.1;65250;;;;
2022/06/04 05:46:23;;;;;;;6.9;9.4;;;;;;;-133;91.3;65250;;;;
2022/06/04 05:56:23;;;;;;;6.9;9.4;;;;;;;-133;90.8;65250;;;;
2022/06/04 06:06:23;;;;;;;7.5;10.8;;;;;;;-133;91.7;65260;;;;
2022/06/04 06:17:23;;;;;;;7.5;10.8;;;;;;;-133;91.5;65250;;;;
2022/06/04 06:28:23;;;;;;;7.5;10.8;;;;;;;-133;90.9;65250;;;;
2022/06/04 06:39:23;;;;;;;8.9;14.1;;;;;;;-133;91.4;65250;;;;
2022/06/04 06:50:23;;;;;;;8.9;14.1;;;;;;;-133;92.7;65250;;;;
2022/06/04 07:01:24;;;;;;;8.9;14.1;;;;;;;-133;91.9;65260;;;;
2022/06/04 07:11:23;;;;;;;9.1;13.1;;;;;;;-133;91.5;65250;;;;
2022/06/04 07:21:24;;;;;;;9.1;13.1;;;;;;;-133;88.1;65250;;;;
2022/06/04 07:31:23;;;;;;;9.1;13.1;;;;;;;-133;88.8;65250;;;;
2022/06/04 07:41:23;;;;;;;11.1;13.4;;;;;;;-133;86.7;65250;;;;
2022/06/04 07:51:23;;;;;;;11.1;13.4;;;;;;;-133;83.8;65250;;;;
2022/06/04 08:02:24;;;;;;;11.1;13.4;;;;;;;-133;86.6;65250;;;;
2022/06/04 08:12:23;;;;;;;10.7;15.7;;;;;;;-133;86.7;65240;;;;
2022/06/04 08:23:23;;;;;;;10.7;15.7;;;;;;;-133;87.7;65240;;;;
2022/06/04 08:33:23;;;;;;;10.7;15.7;;;;;;;-133;87.1;65240;;;;
2022/06/04 08:44:23;;;;;;;8.4;11.2;;;;;;;-133;84.5;65240;;;;
2022/06/04 09:04:23;;;;;;;9.5;12;;;;;;;-133;84.7;65240;;;;
2022/06/04 09:15:24;;;;;;;9.5;12;;;;;;;-133;85.6;65240;;;;
2022/06/04 09:25:24;;;;;;;9.5;12;;;;;;;-133;86.9;65240;;;;
2022/06/04 09:35:23;;;;;;;11.7;13.4;;;;;;;-133;87.2;65240;;;;
2022/06/04 09:46:23;;;;;;;11.7;13.4;;;;;;;-133;87.1;65240;;;;
2022/06/04 09:57:23;;;;;;;11.7;13.4;;;;;;;-133;86.8;65240;;;;
2022/06/04 10:07:23;;;;;;;13.3;17.5;;;;;;;-133;88.3;65240;;;;
2022/06/04 10:18:23;;;;;;;13.3;17.5;;;;;;;-133;87.8;65240;;;;
2022/06/04 10:28:23;;;;;;;13.3;17.5;;;;;;;-133;86.9;65240;;;;
2022/06/04 10:38:23;;;;;;;14;16.4;;;;;;;-133;86.2;65240;;;;
2022/06/04 10:49:23;;;;;;;14;16.4;;;;;;;-133;86.1;65240;;;;
2022/06/04 11:00:23;;;;;;;14;16.4;;;;;;;-133;85.4;65240;;;;
2022/06/04 11:11:24;;;;;;;13.5;15.1;;;;;;;-133;87;65230;;;;
2022/06/04 11:21:23;;;;;;;13.5;15.1;;;;;;;-133;84.2;65230;;;;
2022/06/04 11:31:23;;;;;;;13.5;15.1;;;;;;;-133;81.7;65240;;;;
2022/06/04 11:41:23;;;;;;;14.7;17.3;;;;;;;-133;83.4;65230;;;;
2022/06/04 11:52:23;;;;;;;14.7;17.3;;;;;;;-133;82.1;65230;;;;
2022/06/04 12:03:23;;;;;;;14.7;17.3;;;;;;;-133;82.6;65230;;;;
2022/06/04 12:14:23;;;;;;;14.8;16.6;;;;;;;-133;84;65230;;;;
2022/06/04 12:24:23;;;;;;;14.8;16.6;;;;;;;-133;83;65230;;;;
2022/06/04 12:35:23;;;;;;;14.9;16.8;;;;;;;-133;81.5;65230;;;;
2022/06/04 12:45:23;;;;;;;14.9;16.8;;;;;;;-133;81;65230;;;;
2022/06/04 12:56:23;;;;;;;14.9;16.8;;;;;;;-133;77.4;65230;;;;
2022/06/04 13:06:23;;;;;;;10.5;14;;;;;;;-133;75.3;65230;;;;
2022/06/04 13:16:24;;;;;;;10.5;14;;;;;;;-133;76.7;65230;;;;
2022/06/04 13:26:23;;;;;;;10.5;14;;;;;;;-133;75.3;65230;;;;
2022/06/04 13:36:23;;;;;;;8.8;11.2;;;;;;;-133;72.8;65220;;;;
2022/06/04 13:47:23;;;;;;;8.8;11.2;;;;;;;-133;71.9;65220;;;;
2022/06/04 13:57:23;;;;;;;8.8;11.2;;;;;;;-133;71.2;65230;;;;
2022/06/04 14:08:23;;;;;;;8;10.9;;;;;;;-133;71.8;65230;;;;
2022/06/04 14:19:23;;;;;;;8;10.9;;;;;;;-133;74.9;65230;;;;
2022/06/04 14:29:23;;;;;;;8;10.9;;;;;;;-133;74;65230;;;;
2022/06/04 14:40:23;;;;;;;6.4;9.7;;;;;;;-133;73.9;65230;;;;
2022/06/04 14:51:24;;;;;;;6.4;9.7;;;;;;;-133;75.4;65230;;;;
2022/06/04 15:01:23;;;;;;;6.4;9.7;;;;;;;-133;77.6;65230;;;;
2022/06/04 15:11:23;;;;;;;6.7;8.8;;;;;;;-133;77.3;65230;;;;
2022/06/04 15:22:23;;;;;;;6.7;8.8;;;;;;;-133;81.6;65230;;;;
2022/06/04 15:42:23;;;;;;;20.7;25;;;;;;;-133;88.1;65230;;;;
2022/06/04 16:03:23;;;;;;;20.7;25;;;;;;;-133;91.5;65230;;;;
2022/06/04 16:14:23;;;;;;;11.5;14.6;;;;;;;-133;92;65230;;;;
2022/06/04 16:24:23;;;;;;;11.5;14.6;;;;;;;-133;92.6;65220;;;;
2022/06/04 16:35:24;;;;;;;15.2;18.2;;;;;;;-133;92.7;65230;;;;
2022/06/04 16:46:23;;;;;;;15.2;18.2;;;;;;;-133;93.3;65220;;;;
2022/06/04 16:57:23;;;;;;;15.2;18.2;;;;;;;-133;93.9;65220;;;;
2022/06/04 17:07:23;;;;;;;9.2;10.9;;;;;;;-133;94.1;65220;;;;
2022/06/04 17:18:26;;;;;;;9.2;10.9;;;;;;;-133;94.3;65230;;;;
2022/06/04 17:29:23;;;;;;;9.2;10.9;;;;;;;-133;94.7;65220;;;;
2022/06/04 17:40:23;;;;;;;8.8;10.6;;;;;;;-133;94.6;65220;;;;
2022/06/04 17:50:23;;;;;;;8.8;10.6;;;;;;;-133;94.6;65230;;;;
2022/06/04 18:01:23;;;;;;;8.8;10.6;;;;;;;-133;94.9;65220;;;;
2022/06/04 18:11:23;;;;;;;6.2;7.8;;;;;;;-133;94.1;65220;;;;
2022/06/04 18:21:23;;;;;;;6.2;7.8;;;;;;;-133;94.8;65220;;;;
2022/06/04 18:31:23;;;;;;;6.2;7.8;;;;;;;-133;94.8;65220;;;;
2022/06/04 19:02:23;;;;;;;7.6;9.5;;;;;;;-133;95.2;65220;;;;
2022/06/04 19:13:40;;;;;;;8.3;9.8;;;;;;;-133;95.6;65220;;;;
2022/06/04 19:34:23;;;;;;;9.1;11.9;;;;;;;-133;96.8;65220;;;;
2022/06/04 19:45:23;;;;;;;9.1;11.9;;;;;;;-133;99.9;65220;;;;
2022/06/04 19:56:23;;;;;;;9.1;11.9;;;;;;;-133;98.3;65220;;;;
2022/06/04 20:06:24;;;;;;;10.9;12.4;;;;;;;-133;98.8;65220;;;;
2022/06/04 20:16:23;;;;;;;10.9;12.4;;;;;;;-133;99.7;65220;;;;
2022/06/04 20:26:23;;;;;;;10.9;12.4;;;;;;;-133;100;65220;;;;
2022/06/04 20:36:23;;;;;;;18.9;21.1;;;;;;;-133;100;65220;;;;
2022/06/04 20:47:23;;;;;;;18.9;21.1;;;;;;;-133;100;65220;;;;
2022/06/04 20:58:24;;;;;;;18.9;21.1;;;;;;;-133;100;65220;;;;
2022/06/04 21:08:23;;;;;;;17.2;20;;;;;;;-133;100;65220;;;;
2022/06/04 21:18:23;;;;;;;17.2;20;;;;;;;-133;100;65220;;;;
2022/06/04 21:28:23;;;;;;;17.2;20;;;;;;;-133;100;65220;;;;
2022/06/04 21:39:23;;;;;;;17.2;19.4;;;;;;;-133;100;65220;;;;
2022/06/04 21:50:23;;;;;;;17.2;19.4;;;;;;;-133;100;65220;;;;
2022/06/04 22:00:23;;;;;;;17.2;19.4;;;;;;;-133;100;65210;;;;
2022/06/04 22:11:23;;;;;;;20.3;25.8;;;;;;;-133;100;65220;;;;
2022/06/04 22:21:23;;;;;;;20.3;25.8;;;;;;;-133;100;65220;;;;
2022/06/04 22:31:23;;;;;;;20.3;25.8;;;;;;;-133;100;65220;;;;
2022/06/04 22:42:23;;;;;;;26;54;;;;;;;-133;100;65220;;;;
2022/06/04 22:53:23;;;;;;;26;54;;;;;;;-133;100;65220;;;;
2022/06/04 23:03:23;;;;;;;26;54;;;;;;;-133;100;65220;;;;
2022/06/04 23:24:23;;;;;;;21.9;35.8;;;;;;;-133;100;65220;;;;
2022/06/04 23:35:23;;;;;;;22.4;37.1;;;;;;;-133;100;65220;;;;
2022/06/04 23:46:23;;;;;;;22.4;37.1;;;;;;;-133;100;65220;;;;
2022/06/04 23:56:23;;;;;;;22.4;37.1;;;;;;;-133;100;65220;;;;
